Time;durP1;ratioP1;P1;durP2;ratioP2;P2;SDS_P1;SDS_P2;PMS_P1;PMS_P2;Temp;Humidity;BMP_temperature;BMP_pressure;BME280_temperature;BME280_humidity;BME280_pressure;Samples;Min_cycle;Max_cycle;Signal;HPM_P1;HPM_P2
2023/06/29 00:00:15;;;;;;;19.17;9.48;;;;;;;;;;5077942;28;20031;-70
2023/06/29 00:02:41;;;;;;;20.60;9.93;;;;;;;;;;5045483;28;20041;-70
2023/06/29 00:05:08;;;;;;;19.02;9.65;;;;;;;;;;5044977;28;20049;-70
2023/06/29 00:07:34;;;;;;;18.85;9.85;;;;;;;;;;5045483;28;20044;-70
2023/06/29 00:10:00;;;;;;;21.65;9.95;;;;;;;;;;5043903;28;20028;-71
2023/06/29 00:12:25;;;;;;;20.55;9.75;;;;;;;;;;5033754;28;20125;-71
2023/06/29 00:14:50;;;;;;;21.20;10.07;;;;;;;;;;5077404;28;20884;-71
2023/06/29 00:17:16;;;;;;;21.17;10.25;;;;;;;;;;5045338;28;20629;-70
2023/06/29 00:19:42;;;;;;;23.80;10.77;;;;;;;;;;5042369;28;20098;-71
2023/06/29 00:22:09;;;;;;;24.88;10.75;;;;;;;;;;5045366;28;20029;-70
2023/06/29 00:24:42;;;;;;;22.52;9.77;;;;;;;;;;5046581;28;20111;-71
2023/06/29 00:27:10;;;;;;;;;;;;;;;;;;5047189;28;20033;-71
2023/06/29 00:29:36;;;;;;;22.60;10.25;;;;;;;;;;5039827;28;19916;-70
2023/06/29 00:32:02;;;;;;;22.25;10.10;;;;;;;;;;5044667;28;20418;-70
2023/06/29 00:34:27;;;;;;;23.08;10.30;;;;;;;;;;5046869;28;20036;-70
2023/06/29 00:36:52;;;;;;;21.02;10.00;;;;;;;;;;5047351;28;20025;-71
2023/06/29 00:39:18;;;;;;;23.70;10.90;;;;;;;;;;5050316;28;20100;-70
2023/06/29 00:41:43;;;;;;;21.08;10.18;;;;;;;;;;5048753;28;20029;-70
2023/06/29 00:44:08;;;;;;;22.55;10.48;;;;;;;;;;5048572;28;20630;-70
2023/06/29 00:46:34;;;;;;;22.38;10.35;;;;;;;;;;5048741;28;20040;-70
2023/06/29 00:48:59;;;;;;;22.45;10.25;;;;;;;;;;5049497;28;20060;-71
2023/06/29 00:51:26;;;;;;;25.38;10.02;;;;;;;;;;5049124;28;20110;-71
2023/06/29 00:53:51;;;;;;;19.10;9.48;;;;;;;;;;5047743;28;20425;-71
2023/06/29 00:56:16;;;;;;;25.88;10.18;;;;;;;;;;5047544;28;20561;-71
2023/06/29 00:58:43;;;;;;;22.80;11.43;;;;;;;;;;5049126;28;20457;-71
2023/06/29 01:01:08;;;;;;;23.40;9.50;;;;;;;;;;5044163;28;20029;-70
2023/06/29 01:03:34;;;;;;;24.48;10.60;;;;;;;;;;5047315;28;20383;-70
2023/06/29 01:06:04;;;;;;;22.13;10.15;;;;;;;;;;5048577;28;20477;-71
2023/06/29 01:08:34;;;;;;;22.10;10.50;;;;;;;;;;5048520;28;20033;-71
2023/06/29 01:11:03;;;;;;;23.65;10.60;;;;;;;;;;5044939;28;20036;-71
2023/06/29 01:13:29;;;;;;;19.90;10.05;;;;;;;;;;5043591;28;20025;-71
2023/06/29 01:15:55;;;;;;;19.65;10.32;;;;;;;;;;5047351;28;20028;-71
2023/06/29 01:18:23;;;;;;;21.05;9.93;;;;;;;;;;5048886;28;20074;-71
2023/06/29 01:20:49;;;;;;;19.95;9.85;;;;;;;;;;5048404;28;20064;-71
2023/06/29 01:23:23;;;;;;;22.23;10.23;;;;;;;;;;5047717;28;20473;-71
2023/06/29 01:25:50;;;;;;;20.27;10.45;;;;;;;;;;5048683;28;20048;-70
2023/06/29 01:28:15;;;;;;;21.73;10.90;;;;;;;;;;5046923;28;20439;-70
2023/06/29 01:30:45;;;;;;;22.00;9.93;;;;;;;;;;5048291;28;20510;-70
2023/06/29 01:33:11;;;;;;;21.98;10.77;;;;;;;;;;5048395;28;20123;-70
2023/06/29 01:35:37;;;;;;;20.70;10.10;;;;;;;;;;5037528;28;20128;-70
2023/06/29 01:38:08;;;;;;;22.40;10.77;;;;;;;;;;5047269;28;20127;-70
2023/06/29 01:40:35;;;;;;;23.75;10.98;;;;;;;;;;5044127;28;20128;-70
2023/06/29 01:43:01;;;;;;;21.67;10.93;;;;;;;;;;5044819;28;20021;-70
2023/06/29 01:45:27;;;;;;;23.05;11.65;;;;;;;;;;5047906;28;20392;-70
2023/06/29 01:47:54;;;;;;;26.80;11.10;;;;;;;;;;5048013;28;20059;-70
2023/06/29 01:50:19;;;;;;;21.50;10.45;;;;;;;;;;5047561;28;20044;-70
2023/06/29 01:52:44;;;;;;;21.10;10.60;;;;;;;;;;5051807;28;20037;-70
2023/06/29 01:55:11;;;;;;;27.58;11.60;;;;;;;;;;5085395;28;20132;-70
2023/06/29 01:57:37;;;;;;;24.60;11.60;;;;;;;;;;5048647;28;20031;-70
2023/06/29 02:00:06;;;;;;;23.88;11.40;;;;;;;;;;5048140;28;20033;-70
2023/06/29 02:02:31;;;;;;;24.33;11.80;;;;;;;;;;5039562;28;20041;-70
2023/06/29 02:04:56;;;;;;;24.70;13.13;;;;;;;;;;5040001;28;20534;-70
2023/06/29 02:07:22;;;;;;;28.35;12.95;;;;;;;;;;5047994;28;20514;-70
2023/06/29 02:09:47;;;;;;;26.13;12.32;;;;;;;;;;5047569;28;20388;-71
2023/06/29 02:12:13;;;;;;;28.38;13.00;;;;;;;;;;5047399;28;20108;-70
2023/06/29 02:14:38;;;;;;;29.25;12.07;;;;;;;;;;5046994;28;20457;-71
2023/06/29 02:17:04;;;;;;;29.65;12.20;;;;;;;;;;5047331;28;20043;-70
2023/06/29 02:19:29;;;;;;;26.73;12.80;;;;;;;;;;5047517;28;20071;-71
2023/06/29 02:21:54;;;;;;;27.40;12.32;;;;;;;;;;5047105;28;20161;-70
2023/06/29 02:24:20;;;;;;;31.25;13.27;;;;;;;;;;5047353;28;20483;-70
2023/06/29 02:26:45;;;;;;;29.02;12.60;;;;;;;;;;5047661;28;20041;-70
2023/06/29 02:29:10;;;;;;;27.08;12.80;;;;;;;;;;5046997;28;20045;-70
2023/06/29 02:31:36;;;;;;;29.20;12.75;;;;;;;;;;5045142;28;20040;-71
2023/06/29 02:34:01;;;;;;;26.08;12.60;;;;;;;;;;5047385;28;20115;-70
2023/06/29 02:36:26;;;;;;;28.80;13.68;;;;;;;;;;5041094;28;20116;-71
2023/06/29 02:38:51;;;;;;;31.30;12.65;;;;;;;;;;5032611;28;20129;-70
2023/06/29 02:41:17;;;;;;;27.58;12.75;;;;;;;;;;5047054;28;20106;-70
2023/06/29 02:43:42;;;;;;;27.92;12.20;;;;;;;;;;5046668;28;20037;-70
2023/06/29 02:46:08;;;;;;;29.55;13.23;;;;;;;;;;5046363;28;20572;-70
2023/06/29 02:48:33;;;;;;;28.63;13.32;;;;;;;;;;5046899;28;20021;-70
2023/06/29 02:50:58;;;;;;;31.83;13.32;;;;;;;;;;5046886;28;20030;-71
2023/06/29 02:53:23;;;;;;;29.27;12.95;;;;;;;;;;5044894;28;20036;-70
2023/06/29 02:55:49;;;;;;;31.10;12.63;;;;;;;;;;5046958;28;20090;-70
2023/06/29 02:58:14;;;;;;;26.40;13.13;;;;;;;;;;5045389;28;20033;-71
2023/06/29 03:00:39;;;;;;;26.80;12.52;;;;;;;;;;5047102;28;20064;-70
2023/06/29 03:03:05;;;;;;;27.85;12.35;;;;;;;;;;5044644;28;20043;-71
2023/06/29 03:05:30;;;;;;;26.05;12.20;;;;;;;;;;5044669;28;20065;-70
2023/06/29 03:07:55;;;;;;;33.25;13.20;;;;;;;;;;5046069;28;20173;-70
2023/06/29 03:10:21;;;;;;;24.70;13.02;;;;;;;;;;5046795;28;20043;-70
2023/06/29 03:12:46;;;;;;;24.42;12.13;;;;;;;;;;5045416;28;20108;-70
2023/06/29 03:15:11;;;;;;;28.05;13.02;;;;;;;;;;5046790;28;20052;-70
2023/06/29 03:17:37;;;;;;;26.98;11.60;;;;;;;;;;5046124;28;20033;-70
2023/06/29 03:20:03;;;;;;;26.40;12.13;;;;;;;;;;5050990;28;20056;-70
2023/06/29 03:22:29;;;;;;;28.25;12.40;;;;;;;;;;5049772;28;20079;-70
2023/06/29 03:24:54;;;;;;;27.27;12.25;;;;;;;;;;5045348;28;20017;-70
2023/06/29 03:27:19;;;;;;;29.55;12.50;;;;;;;;;;5046434;28;20021;-71
2023/06/29 03:29:48;;;;;;;26.70;12.30;;;;;;;;;;5046121;28;20041;-71
2023/06/29 03:32:14;;;;;;;25.17;11.98;;;;;;;;;;5045899;28;20071;-70
2023/06/29 03:34:40;;;;;;;29.40;13.45;;;;;;;;;;5045630;28;20037;-71
2023/06/29 03:37:05;;;;;;;29.00;13.07;;;;;;;;;;5045669;28;20503;-71
2023/06/29 03:39:30;;;;;;;27.33;12.00;;;;;;;;;;5046355;28;20565;-71
2023/06/29 03:41:55;;;;;;;25.88;12.25;;;;;;;;;;5043868;28;20056;-71
2023/06/29 03:44:21;;;;;;;27.15;12.45;;;;;;;;;;5045838;28;20087;-71
2023/06/29 03:46:47;;;;;;;28.77;12.60;;;;;;;;;;5045553;28;20179;-71
2023/06/29 03:49:12;;;;;;;27.25;11.90;;;;;;;;;;5045196;28;20059;-71
2023/06/29 03:51:38;;;;;;;31.75;12.80;;;;;;;;;;5074168;28;20072;-70
2023/06/29 03:54:03;;;;;;;26.95;12.73;;;;;;;;;;5046000;28;20127;-71
2023/06/29 03:56:31;;;;;;;27.38;12.55;;;;;;;;;;5045260;28;20029;-71
2023/06/29 03:58:56;;;;;;;26.90;12.50;;;;;;;;;;5045997;28;20033;-70
2023/06/29 04:01:21;;;;;;;29.25;12.35;;;;;;;;;;5044452;28;20492;-70
2023/06/29 04:03:46;;;;;;;30.33;12.65;;;;;;;;;;5042113;28;20028;-70
2023/06/29 04:06:12;;;;;;;29.05;13.18;;;;;;;;;;5043779;28;20045;-70
2023/06/29 04:08:37;;;;;;;22.83;11.73;;;;;;;;;;5045428;28;20644;-70
2023/06/29 04:11:02;;;;;;;27.00;12.23;;;;;;;;;;5044741;28;20577;-71
2023/06/29 04:13:28;;;;;;;29.67;12.48;;;;;;;;;;5043558;28;20037;-71
2023/06/29 04:15:53;;;;;;;26.58;12.38;;;;;;;;;;5045439;28;20021;-71
2023/06/29 04:18:19;;;;;;;29.95;12.13;;;;;;;;;;5045319;28;20025;-70
2023/06/29 04:23:11;;;;;;;30.23;13.57;;;;;;;;;;5033018;28;20125;-71
2023/06/29 04:25:37;;;;;;;28.80;12.77;;;;;;;;;;5041344;28;20966;-71
2023/06/29 04:28:02;;;;;;;26.48;12.20;;;;;;;;;;5038395;28;20022;-71
2023/06/29 04:30:27;;;;;;;32.90;12.82;;;;;;;;;;5044070;28;20109;-71
2023/06/29 04:32:53;;;;;;;30.08;12.55;;;;;;;;;;5043267;28;20041;-71
2023/06/29 04:35:18;;;;;;;26.65;12.10;;;;;;;;;;5045327;28;20518;-71
2023/06/29 04:37:43;;;;;;;28.10;12.65;;;;;;;;;;5045052;28;20029;-70
2023/06/29 04:40:10;;;;;;;29.15;13.15;;;;;;;;;;5045646;28;20048;-70
2023/06/29 04:42:46;;;;;;;27.52;12.88;;;;;;;;;;5046126;28;20021;-70
2023/06/29 04:45:13;;;;;;;27.95;13.13;;;;;;;;;;5046310;28;20542;-70
2023/06/29 04:47:40;;;;;;;23.83;11.98;;;;;;;;;;5051950;28;20426;-70
2023/06/29 04:50:07;;;;;;;28.55;13.35;;;;;;;;;;5047366;28;20039;-70
2023/06/29 04:52:36;;;;;;;28.42;13.45;;;;;;;;;;5044927;28;20033;-70
2023/06/29 04:55:05;;;;;;;30.52;12.27;;;;;;;;;;5045177;28;20032;-70
2023/06/29 04:57:30;;;;;;;26.73;12.55;;;;;;;;;;5045228;28;20021;-70
2023/06/29 04:59:56;;;;;;;27.15;12.88;;;;;;;;;;5045077;28;20554;-71
2023/06/29 05:02:21;;;;;;;29.90;12.48;;;;;;;;;;5044018;28;20037;-70
2023/06/29 05:04:48;;;;;;;28.17;12.93;;;;;;;;;;5043608;28;20079;-70
2023/06/29 05:07:13;;;;;;;27.48;13.13;;;;;;;;;;5062071;28;20095;-70
2023/06/29 05:09:38;;;;;;;25.98;12.68;;;;;;;;;;5043408;28;20040;-70
2023/06/29 05:12:04;;;;;;;24.45;13.05;;;;;;;;;;5043482;28;20044;-70
2023/06/29 05:14:29;;;;;;;27.33;12.88;;;;;;;;;;5044590;28;20507;-70
2023/06/29 05:16:57;;;;;;;27.48;12.68;;;;;;;;;;5044768;28;20045;-70
2023/06/29 05:19:22;;;;;;;25.58;13.05;;;;;;;;;;5044688;28;20530;-70
2023/06/29 05:21:47;;;;;;;28.15;12.90;;;;;;;;;;5047821;28;20102;-70
2023/06/29 05:24:13;;;;;;;30.20;13.68;;;;;;;;;;5048561;28;20024;-70
2023/06/29 05:26:38;;;;;;;30.70;13.35;;;;;;;;;;5048373;28;20041;-70
2023/06/29 05:29:03;;;;;;;28.33;12.38;;;;;;;;;;5047686;28;20090;-70
2023/06/29 05:31:28;;;;;;;31.38;12.90;;;;;;;;;;5048114;28;20061;-70
2023/06/29 05:33:54;;;;;;;26.40;12.90;;;;;;;;;;5047798;28;20025;-70
2023/06/29 05:36:20;;;;;;;31.20;14.15;;;;;;;;;;5041637;28;20021;-70
2023/06/29 05:38:45;;;;;;;28.08;13.30;;;;;;;;;;5047894;28;20063;-70
2023/06/29 05:41:11;;;;;;;29.10;13.18;;;;;;;;;;5048060;28;20091;-70
2023/06/29 05:43:36;;;;;;;29.40;13.90;;;;;;;;;;5047833;28;20037;-69
2023/06/29 05:46:02;;;;;;;29.27;13.93;;;;;;;;;;5047506;28;20564;-70
2023/06/29 05:48:28;;;;;;;33.95;14.55;;;;;;;;;;5048716;28;20116;-70
2023/06/29 05:50:53;;;;;;;31.77;14.55;;;;;;;;;;5046833;28;20471;-70
2023/06/29 05:53:18;;;;;;;32.10;14.55;;;;;;;;;;5031036;28;20061;-70
2023/06/29 05:55:43;;;;;;;35.42;15.85;;;;;;;;;;5047599;28;20029;-70
2023/06/29 05:58:09;;;;;;;35.55;14.73;;;;;;;;;;5048115;28;20095;-70
2023/06/29 06:00:34;;;;;;;30.83;14.30;;;;;;;;;;5048347;28;20028;-70
2023/06/29 06:02:59;;;;;;;32.78;14.80;;;;;;;;;;5047185;28;20040;-70
2023/06/29 06:05:25;;;;;;;32.90;14.93;;;;;;;;;;5046616;28;20059;-70
2023/06/29 06:07:50;;;;;;;34.03;14.63;;;;;;;;;;5047682;28;20033;-70
2023/06/29 06:10:15;;;;;;;33.35;15.27;;;;;;;;;;5042967;28;20043;-70
2023/06/29 06:12:41;;;;;;;35.25;15.23;;;;;;;;;;5050244;28;20032;-70
2023/06/29 06:15:10;;;;;;;38.22;15.57;;;;;;;;;;5051224;28;20144;-70
2023/06/29 06:17:36;;;;;;;30.30;14.35;;;;;;;;;;5046439;28;20040;-70
2023/06/29 06:20:01;;;;;;;33.30;14.93;;;;;;;;;;5043885;28;20544;-70
2023/06/29 06:22:26;;;;;;;32.60;14.52;;;;;;;;;;5044960;28;20060;-69
2023/06/29 06:24:52;;;;;;;37.70;15.43;;;;;;;;;;5045023;28;20522;-70
2023/06/29 06:27:17;;;;;;;33.65;15.68;;;;;;;;;;5045268;28;20116;-70
2023/06/29 06:29:43;;;;;;;36.08;15.57;;;;;;;;;;5044269;28;20051;-70
2023/06/29 06:32:09;;;;;;;37.65;16.33;;;;;;;;;;5043875;28;20422;-70
2023/06/29 06:34:34;;;;;;;34.38;15.38;;;;;;;;;;5035844;28;20572;-70
2023/06/29 06:37:00;;;;;;;37.63;16.35;;;;;;;;;;5034401;28;20056;-70
2023/06/29 06:39:26;;;;;;;39.05;16.50;;;;;;;;;;5042417;28;20044;-69
2023/06/29 06:41:51;;;;;;;37.72;16.00;;;;;;;;;;5042742;28;20032;-69
2023/06/29 06:44:17;;;;;;;34.35;15.68;;;;;;;;;;5038086;28;20041;-69
2023/06/29 06:46:42;;;;;;;36.15;16.52;;;;;;;;;;5073180;28;20041;-70
2023/06/29 06:49:07;;;;;;;35.85;15.27;;;;;;;;;;5046803;28;20495;-69
2023/06/29 06:51:33;;;;;;;39.50;15.98;;;;;;;;;;5046498;28;20059;-70
2023/06/29 06:53:58;;;;;;;38.05;16.02;;;;;;;;;;5045080;28;20036;-70
2023/06/29 06:56:23;;;;;;;33.88;16.38;;;;;;;;;;5042276;28;20025;-70
2023/06/29 06:58:49;;;;;;;35.40;16.02;;;;;;;;;;5046226;28;20033;-69
2023/06/29 07:01:15;;;;;;;37.42;16.38;;;;;;;;;;5046656;28;20086;-70
2023/06/29 07:03:41;;;;;;;34.80;15.68;;;;;;;;;;5046112;28;20507;-69
2023/06/29 07:06:06;;;;;;;42.83;16.70;;;;;;;;;;5045734;28;20052;-70
2023/06/29 07:08:33;;;;;;;40.08;17.27;;;;;;;;;;5045836;28;20033;-68
2023/06/29 07:10:58;;;;;;;35.47;17.13;;;;;;;;;;5045482;28;20028;-69
2023/06/29 07:13:24;;;;;;;35.00;16.90;;;;;;;;;;5043574;28;20047;-69
2023/06/29 07:15:49;;;;;;;38.33;16.40;;;;;;;;;;5037129;28;20056;-69
2023/06/29 07:18:15;;;;;;;34.47;16.92;;;;;;;;;;5035028;28;20033;-70
2023/06/29 07:20:40;;;;;;;35.35;15.98;;;;;;;;;;5033408;28;20041;-69
2023/06/29 07:23:05;;;;;;;40.10;16.98;;;;;;;;;;5039414;28;20029;-69
2023/06/29 07:25:30;;;;;;;39.42;16.75;;;;;;;;;;5045745;28;20041;-69
2023/06/29 07:27:56;;;;;;;42.65;17.75;;;;;;;;;;5045501;28;20032;-69
2023/06/29 07:30:21;;;;;;;37.42;16.95;;;;;;;;;;5046270;28;20036;-70
2023/06/29 07:32:47;;;;;;;38.75;16.70;;;;;;;;;;5044237;28;20037;-70
2023/06/29 07:35:12;;;;;;;35.83;16.75;;;;;;;;;;5049038;28;20439;-69
2023/06/29 07:37:37;;;;;;;39.78;16.38;;;;;;;;;;5045506;28;20713;-70
2023/06/29 07:40:06;;;;;;;37.17;17.13;;;;;;;;;;5048841;28;20028;-70
2023/06/29 07:42:32;;;;;;;39.25;17.05;;;;;;;;;;5048693;28;20106;-69
2023/06/29 07:44:57;;;;;;;36.60;17.30;;;;;;;;;;5044281;28;20433;-69
2023/06/29 07:47:22;;;;;;;36.40;16.38;;;;;;;;;;5044162;28;20041;-69
2023/06/29 07:49:48;;;;;;;34.90;15.20;;;;;;;;;;5044755;28;20052;-69
2023/06/29 07:52:13;;;;;;;38.97;16.23;;;;;;;;;;5043859;28;20090;-69
2023/06/29 07:54:38;;;;;;;34.80;16.90;;;;;;;;;;5045218;28;20059;-70
2023/06/29 07:57:05;;;;;;;36.13;16.63;;;;;;;;;;5045270;28;20128;-69
2023/06/29 07:59:30;;;;;;;38.78;16.42;;;;;;;;;;5033496;28;20029;-69
2023/06/29 08:01:56;;;;;;;38.60;16.85;;;;;;;;;;5035241;28;20040;-69
2023/06/29 08:04:21;;;;;;;35.95;16.50;;;;;;;;;;5032125;28;20144;-69
2023/06/29 08:06:46;;;;;;;38.47;16.45;;;;;;;;;;5040450;28;20397;-70
2023/06/29 08:09:11;;;;;;;38.10;16.67;;;;;;;;;;5045709;28;20021;-70
2023/06/29 08:11:37;;;;;;;40.45;17.73;;;;;;;;;;5044414;28;20029;-70
2023/06/29 08:14:04;;;;;;;37.45;16.92;;;;;;;;;;5044910;28;20036;-70
2023/06/29 08:16:29;;;;;;;36.10;17.00;;;;;;;;;;5044899;28;20048;-70
2023/06/29 08:18:54;;;;;;;40.00;16.40;;;;;;;;;;5042180;28;20036;-71
2023/06/29 08:21:20;;;;;;;35.67;16.23;;;;;;;;;;5043801;28;20075;-70
2023/06/29 08:23:48;;;;;;;36.65;17.00;;;;;;;;;;5044070;28;20029;-70
2023/06/29 08:26:14;;;;;;;42.92;17.30;;;;;;;;;;5044018;28;20215;-72
2023/06/29 08:28:39;;;;;;;35.40;16.40;;;;;;;;;;5041725;28;20108;-72
2023/06/29 08:31:04;;;;;;;38.85;17.15;;;;;;;;;;5041918;28;20052;-72
2023/06/29 08:33:30;;;;;;;38.20;17.58;;;;;;;;;;5033570;28;20052;-72
2023/06/29 08:35:55;;;;;;;36.55;16.63;;;;;;;;;;5042298;28;20061;-72
2023/06/29 08:38:21;;;;;;;36.92;16.35;;;;;;;;;;5042251;28;20101;-72
2023/06/29 08:40:47;;;;;;;37.17;17.00;;;;;;;;;;5044137;28;20409;-71
2023/06/29 08:43:15;;;;;;;35.90;16.85;;;;;;;;;;5041100;28;20045;-72
2023/06/29 08:45:41;;;;;;;37.38;17.02;;;;;;;;;;5040003;28;20020;-70
2023/06/29 08:48:07;;;;;;;36.15;17.55;;;;;;;;;;5041677;28;20606;-71
2023/06/29 08:50:35;;;;;;;43.83;17.55;;;;;;;;;;5042214;28;20037;-71
2023/06/29 08:53:00;;;;;;;41.63;17.95;;;;;;;;;;5042006;28;20403;-72
2023/06/29 08:55:27;;;;;;;40.40;18.25;;;;;;;;;;5043682;28;20573;-71
2023/06/29 08:57:54;;;;;;;39.15;18.45;;;;;;;;;;5048149;28;20052;-71
2023/06/29 09:00:20;;;;;;;39.53;17.42;;;;;;;;;;5043379;28;20025;-72
2023/06/29 09:02:47;;;;;;;41.10;18.15;;;;;;;;;;5050292;28;20036;-73
2023/06/29 09:05:13;;;;;;;37.67;17.05;;;;;;;;;;5054945;28;20072;-73
2023/06/29 09:07:40;;;;;;;37.53;17.90;;;;;;;;;;5053961;28;20052;-73
2023/06/29 09:10:08;;;;;;;37.80;16.90;;;;;;;;;;5048151;28;20103;-71
2023/06/29 09:12:36;;;;;;;39.40;17.90;;;;;;;;;;5044299;28;20067;-72
2023/06/29 09:15:05;;;;;;;38.80;16.45;;;;;;;;;;5049953;28;20067;-72
2023/06/29 09:17:33;;;;;;;37.28;16.90;;;;;;;;;;5054872;28;20056;-71
2023/06/29 09:20:00;;;;;;;41.10;17.48;;;;;;;;;;5058697;28;20112;-72
2023/06/29 09:22:27;;;;;;;40.05;17.52;;;;;;;;;;5034753;28;20685;-72
2023/06/29 09:24:57;;;;;;;37.63;17.50;;;;;;;;;;5041349;28;20087;-72
2023/06/29 09:27:23;;;;;;;36.40;17.40;;;;;;;;;;5044836;28;20421;-72
2023/06/29 09:29:52;;;;;;;38.35;16.90;;;;;;;;;;5045955;28;20087;-72
2023/06/29 09:32:18;;;;;;;36.30;17.70;;;;;;;;;;5045371;28;20183;-72
2023/06/29 09:34:48;;;;;;;41.03;18.20;;;;;;;;;;5045807;28;20120;-72
2023/06/29 09:37:17;;;;;;;33.83;16.60;;;;;;;;;;5045486;28;20057;-72
2023/06/29 09:40:11;;;;;;;38.03;18.10;;;;;;;;;;5045876;28;20086;-72
2023/06/29 09:42:37;;;;;;;37.17;16.20;;;;;;;;;;5043442;28;20041;-72
2023/06/29 09:45:07;;;;;;;35.05;17.92;;;;;;;;;;5046135;28;20102;-72
2023/06/29 09:47:33;;;;;;;38.20;17.77;;;;;;;;;;5033474;28;20812;-73
2023/06/29 09:49:58;;;;;;;38.58;17.58;;;;;;;;;;5044654;28;20029;-73
2023/06/29 09:52:23;;;;;;;43.33;18.08;;;;;;;;;;5077143;28;20033;-73
2023/06/29 09:54:51;;;;;;;36.83;17.52;;;;;;;;;;5044939;28;20441;-73
2023/06/29 09:57:17;;;;;;;36.75;17.30;;;;;;;;;;5046164;28;20033;-73
2023/06/29 09:59:45;;;;;;;40.38;19.23;;;;;;;;;;5045769;28;20052;-72
2023/06/29 10:02:14;;;;;;;38.65;17.38;;;;;;;;;;5045271;28;20048;-72
2023/06/29 10:04:40;;;;;;;39.42;18.73;;;;;;;;;;5044700;28;20595;-72
2023/06/29 10:07:14;;;;;;;37.03;17.33;;;;;;;;;;5044948;28;20040;-72
2023/06/29 10:09:42;;;;;;;36.15;17.08;;;;;;;;;;5044836;28;20032;-72
2023/06/29 10:12:10;;;;;;;35.85;16.80;;;;;;;;;;5042110;28;20025;-72
2023/06/29 10:14:42;;;;;;;36.50;17.55;;;;;;;;;;5045129;28;20060;-73
2023/06/29 10:17:10;;;;;;;39.60;17.98;;;;;;;;;;5043806;28;20025;-72
2023/06/29 10:19:38;;;;;;;40.92;18.45;;;;;;;;;;5044734;28;20064;-73
2023/06/29 10:22:07;;;;;;;41.67;18.65;;;;;;;;;;5042802;28;20502;-72
2023/06/29 10:24:41;;;;;;;39.17;18.38;;;;;;;;;;5044255;28;20056;-72
2023/06/29 10:27:08;;;;;;;41.15;18.88;;;;;;;;;;5046009;28;20049;-72
2023/06/29 10:29:45;;;;;;;41.58;18.55;;;;;;;;;;5046290;28;20052;-72
2023/06/29 10:32:28;;;;;;;40.63;17.88;;;;;;;;;;5052038;28;20041;-72
2023/06/29 10:35:07;;;;;;;40.55;18.25;;;;;;;;;;5045321;28;20114;-72
2023/06/29 10:37:42;;;;;;;41.15;18.65;;;;;;;;;;5045218;28;20120;-72
2023/06/29 10:40:11;;;;;;;37.08;18.08;;;;;;;;;;5044600;28;20029;-72
2023/06/29 10:42:39;;;;;;;36.90;17.98;;;;;;;;;;5044059;28;20024;-72
2023/06/29 10:45:16;;;;;;;39.45;19.52;;;;;;;;;;5042882;28;20514;-73
2023/06/29 10:47:42;;;;;;;40.58;20.42;;;;;;;;;;5044104;28;20075;-73
2023/06/29 10:50:10;;;;;;;42.22;18.58;;;;;;;;;;5043677;28;20063;-73
2023/06/29 10:52:39;;;;;;;43.97;19.50;;;;;;;;;;5041780;28;20145;-74
2023/06/29 10:55:23;;;;;;;40.90;19.30;;;;;;;;;;5043838;28;20033;-73
2023/06/29 10:57:54;;;;;;;39.47;19.23;;;;;;;;;;5043778;28;20441;-73
2023/06/29 11:00:19;;;;;;;40.55;19.23;;;;;;;;;;5030985;28;20081;-74
2023/06/29 11:02:47;;;;;;;52.80;20.48;;;;;;;;;;5040799;28;20106;-72
2023/06/29 11:05:14;;;;;;;41.05;18.27;;;;;;;;;;5042616;28;20064;-71
2023/06/29 11:07:40;;;;;;;39.13;19.17;;;;;;;;;;5041379;28;20033;-71
2023/06/29 11:10:06;;;;;;;44.78;20.10;;;;;;;;;;5044203;28;20044;-71
2023/06/29 11:12:32;;;;;;;42.17;19.42;;;;;;;;;;5040687;28;20048;-71
2023/06/29 11:14:58;;;;;;;40.28;19.25;;;;;;;;;;5042392;28;20094;-71
2023/06/29 11:17:23;;;;;;;41.80;20.23;;;;;;;;;;5042989;28;20540;-73
2023/06/29 11:19:49;;;;;;;39.65;19.88;;;;;;;;;;5041930;28;20099;-73
2023/06/29 11:22:18;;;;;;;42.58;20.45;;;;;;;;;;5075321;28;20041;-73
2023/06/29 11:24:44;;;;;;;41.05;19.63;;;;;;;;;;5041556;28;20830;-73
2023/06/29 11:27:10;;;;;;;39.28;19.40;;;;;;;;;;5043556;28;20045;-73
2023/06/29 11:29:35;;;;;;;40.30;19.17;;;;;;;;;;5075824;28;20747;-72
2023/06/29 11:32:01;;;;;;;46.15;21.77;;;;;;;;;;5043701;28;20049;-73
2023/06/29 11:34:27;;;;;;;42.42;19.85;;;;;;;;;;5043806;28;20036;-73
2023/06/29 11:36:52;;;;;;;43.10;20.13;;;;;;;;;;5043429;28;20033;-73
2023/06/29 11:39:18;;;;;;;37.10;18.80;;;;;;;;;;5076451;28;20029;-73
2023/06/29 11:41:46;;;;;;;39.35;19.25;;;;;;;;;;5043678;28;20091;-73
2023/06/29 11:44:12;;;;;;;40.58;20.85;;;;;;;;;;5042596;28;20238;-73
2023/06/29 11:46:38;;;;;;;40.38;19.38;;;;;;;;;;5044262;28;20510;-72
2023/06/29 11:49:04;;;;;;;41.90;19.65;;;;;;;;;;5043870;28;20078;-72
2023/06/29 11:51:38;;;;;;;40.97;18.42;;;;;;;;;;5044808;28;20108;-73
2023/06/29 11:54:03;;;;;;;41.92;19.35;;;;;;;;;;5047052;28;20166;-73
2023/06/29 11:56:40;;;;;;;37.10;19.58;;;;;;;;;;5051314;28;20048;-73
2023/06/29 11:59:10;;;;;;;38.22;19.50;;;;;;;;;;5042836;28;20131;-72
2023/06/29 12:01:36;;;;;;;42.90;19.90;;;;;;;;;;5043192;28;20048;-73
2023/06/29 12:04:04;;;;;;;38.08;19.23;;;;;;;;;;5035308;28;20042;-72
2023/06/29 12:06:30;;;;;;;42.20;19.95;;;;;;;;;;5035727;28;20040;-72
2023/06/29 12:08:55;;;;;;;37.95;19.25;;;;;;;;;;5038499;28;20040;-72
2023/06/29 12:11:20;;;;;;;39.40;18.85;;;;;;;;;;5042540;28;20399;-73
2023/06/29 12:13:47;;;;;;;42.60;17.98;;;;;;;;;;5043061;28;20069;-72
2023/06/29 12:16:13;;;;;;;41.22;19.10;;;;;;;;;;5042396;28;20052;-73
2023/06/29 12:18:38;;;;;;;43.45;19.10;;;;;;;;;;5043925;28;20418;-73
2023/06/29 12:21:04;;;;;;;41.03;19.67;;;;;;;;;;5038017;28;20106;-72
2023/06/29 12:23:29;;;;;;;40.03;19.00;;;;;;;;;;5034270;28;20099;-72
2023/06/29 12:25:54;;;;;;;41.33;19.88;;;;;;;;;;5039354;28;20044;-72
2023/06/29 12:28:21;;;;;;;44.38;19.50;;;;;;;;;;5037568;28;20029;-72
2023/06/29 12:30:47;;;;;;;43.85;19.30;;;;;;;;;;5046398;28;20116;-73
2023/06/29 12:33:13;;;;;;;41.75;19.98;;;;;;;;;;5047097;28;20984;-72
2023/06/29 12:35:38;;;;;;;38.42;18.65;;;;;;;;;;5046257;28;20029;-72
2023/06/29 12:38:05;;;;;;;39.03;18.63;;;;;;;;;;5047276;28;20056;-72
2023/06/29 12:40:30;;;;;;;40.65;19.00;;;;;;;;;;5045673;28;20055;-72
2023/06/29 12:42:56;;;;;;;46.08;19.92;;;;;;;;;;5079002;28;20840;-72
2023/06/29 12:45:22;;;;;;;39.95;19.20;;;;;;;;;;5047709;28;20731;-72
2023/06/29 12:47:47;;;;;;;44.22;19.20;;;;;;;;;;5046946;28;20082;-72
2023/06/29 12:50:13;;;;;;;36.50;18.65;;;;;;;;;;5045290;28;20077;-73
2023/06/29 12:52:39;;;;;;;41.92;19.30;;;;;;;;;;5034330;28;20045;-73
2023/06/29 12:55:04;;;;;;;42.10;19.15;;;;;;;;;;5043595;28;20068;-72
2023/06/29 12:57:29;;;;;;;46.88;19.90;;;;;;;;;;5045615;28;20033;-73
2023/06/29 12:59:56;;;;;;;43.33;18.90;;;;;;;;;;5046183;28;20060;-72
2023/06/29 13:02:22;;;;;;;38.90;19.05;;;;;;;;;;5046125;28;20095;-72
2023/06/29 13:04:47;;;;;;;38.55;17.55;;;;;;;;;;5043332;28;20052;-72
2023/06/29 13:07:14;;;;;;;37.55;18.48;;;;;;;;;;5045219;28;20041;-72
2023/06/29 13:09:41;;;;;;;39.35;18.48;;;;;;;;;;5040288;28;20111;-72
2023/06/29 13:12:07;;;;;;;39.35;18.60;;;;;;;;;;5042768;28;20028;-72
2023/06/29 13:14:33;;;;;;;37.30;17.40;;;;;;;;;;5045316;28;20029;-72
2023/06/29 13:16:59;;;;;;;40.92;17.67;;;;;;;;;;5046752;28;20514;-72
2023/06/29 13:19:25;;;;;;;35.75;16.40;;;;;;;;;;5047363;28;20079;-73
2023/06/29 13:21:51;;;;;;;32.25;16.58;;;;;;;;;;5052011;28;20096;-72
2023/06/29 13:24:16;;;;;;;31.08;16.98;;;;;;;;;;5053436;28;20108;-71
2023/06/29 13:26:41;;;;;;;34.90;16.95;;;;;;;;;;5078890;28;20101;-71
2023/06/29 13:29:07;;;;;;;32.25;16.58;;;;;;;;;;5033718;28;20522;-72
2023/06/29 13:31:32;;;;;;;31.90;16.77;;;;;;;;;;5044374;28;20037;-73
2023/06/29 13:33:58;;;;;;;34.03;16.83;;;;;;;;;;5044371;28;20037;-72
2023/06/29 13:36:23;;;;;;;31.67;16.35;;;;;;;;;;5045768;28;20052;-72
2023/06/29 13:38:48;;;;;;;32.30;16.35;;;;;;;;;;5045011;28;20044;-72
2023/06/29 13:41:14;;;;;;;30.95;16.25;;;;;;;;;;5043751;28;20037;-72
2023/06/29 13:43:39;;;;;;;32.25;15.80;;;;;;;;;;5044202;28;20609;-72
2023/06/29 13:46:04;;;;;;;31.20;16.08;;;;;;;;;;5042054;28;20990;-72
2023/06/29 13:48:30;;;;;;;30.42;15.82;;;;;;;;;;5045714;28;20029;-71
2023/06/29 13:50:55;;;;;;;32.28;15.68;;;;;;;;;;5045472;28;20383;-71
2023/06/29 13:53:20;;;;;;;34.70;17.45;;;;;;;;;;5045426;28;20056;-72
2023/06/29 13:55:46;;;;;;;31.67;16.25;;;;;;;;;;5041798;28;20044;-72
2023/06/29 13:58:12;;;;;;;30.98;15.98;;;;;;;;;;5035086;28;20271;-71
2023/06/29 14:00:37;;;;;;;31.65;15.80;;;;;;;;;;5038182;28;20037;-72
2023/06/29 14:03:03;;;;;;;32.08;15.80;;;;;;;;;;5044946;28;20048;-72
2023/06/29 14:05:29;;;;;;;29.70;15.38;;;;;;;;;;5033403;28;20053;-72
2023/06/29 14:07:55;;;;;;;31.80;14.70;;;;;;;;;;5041058;28;20033;-71
2023/06/29 14:10:21;;;;;;;28.25;15.13;;;;;;;;;;5041972;28;20037;-71
2023/06/29 14:12:46;;;;;;;29.48;14.93;;;;;;;;;;5044739;28;20029;-71
2023/06/29 14:15:11;;;;;;;26.05;12.40;;;;;;;;;;5044081;28;20025;-71